Time;durP1;ratioP1;P1;durP2;ratioP2;P2;SDS_P1;SDS_P2;PMS_P1;PMS_P2;Temp;Humidity;BMP_temperature;BMP_pressure;BME280_temperature;BME280_humidity;BME280_pressure;Samples;Min_cycle;Max_cycle;Signal;HPM_P1;HPM_P2
2023/01/28 00:00:27;;;;;;;4.13;1.20;;;;;;;1.34;100.00;103001.50;4985266;28;20697;-79
2023/01/28 00:02:52;;;;;;;2.73;1.20;;;;;;;1.37;100.00;103003.41;4985612;28;20738;-78
2023/01/28 00:05:18;;;;;;;2.87;1.30;;;;;;;1.39;100.00;102997.75;4987892;28;20227;-79
2023/01/28 00:07:43;;;;;;;3.13;1.40;;;;;;;1.43;100.00;102993.84;4986220;28;20227;-79
2023/01/28 00:10:09;;;;;;;2.10;1.20;;;;;;;1.46;100.00;102991.63;4985517;28;20303;-78
2023/01/28 00:12:35;;;;;;;4.27;1.30;;;;;;;1.46;100.00;102989.97;4986696;28;20590;-80
2023/01/28 00:15:00;;;;;;;3.70;1.20;;;;;;;1.48;100.00;102988.47;4987950;28;20212;-79
2023/01/28 00:17:26;;;;;;;2.23;1.20;;;;;;;1.48;100.00;102992.63;4964861;28;20208;-79
2023/01/28 00:19:51;;;;;;;3.83;1.40;;;;;;;1.45;100.00;102988.19;4986233;28;20228;-79
2023/01/28 00:22:17;;;;;;;3.33;1.50;;;;;;;1.45;100.00;102994.88;4986311;28;20204;-79
2023/01/28 00:24:42;;;;;;;2.27;1.40;;;;;;;1.45;100.00;103005.84;4985542;28;20187;-79
2023/01/28 00:27:08;;;;;;;2.13;1.27;;;;;;;1.46;100.00;102996.66;4973030;28;20196;-78
2023/01/28 00:29:34;;;;;;;3.90;1.77;;;;;;;1.45;100.00;103000.81;5003627;28;20202;-78
2023/01/28 00:32:00;;;;;;;3.43;1.37;;;;;;;1.43;100.00;103004.84;4973034;28;20238;-79
2023/01/28 00:34:28;;;;;;;2.17;1.37;;;;;;;1.43;100.00;103004.84;4986401;28;20223;-78
2023/01/28 00:36:56;;;;;;;3.00;1.53;;;;;;;1.40;100.00;103006.19;4988713;28;20663;-79
2023/01/28 00:39:23;;;;;;;3.83;1.60;;;;;;;1.40;100.00;103012.13;4990756;28;20200;-79
2023/01/28 00:41:48;;;;;;;5.47;2.20;;;;;;;1.41;100.00;103005.44;4989419;28;20230;-78
2023/01/28 00:44:15;;;;;;;3.40;1.60;;;;;;;1.41;100.00;103001.28;4988287;28;20184;-78
2023/01/28 00:46:40;;;;;;;2.80;1.67;;;;;;;1.44;100.00;103008.22;4990275;28;20191;-79
2023/01/28 00:49:07;;;;;;;1.83;1.40;;;;;;;1.43;100.00;103003.94;4990476;28;20195;-79
2023/01/28 00:51:33;;;;;;;4.10;1.70;;;;;;;1.40;100.00;102999.50;4989016;28;20215;-79
2023/01/28 00:53:58;;;;;;;6.03;2.33;;;;;;;1.40;100.00;103002.03;4989523;28;20272;-79
2023/01/28 00:56:25;;;;;;;3.73;1.90;;;;;;;1.39;100.00;102995.22;4974332;28;20220;-78
2023/01/28 00:58:51;;;;;;;2.33;1.70;;;;;;;1.42;100.00;102999.66;4987428;28;20192;-78
2023/01/28 01:01:19;;;;;;;2.20;1.53;;;;;;;1.42;100.00;103003.03;4968192;28;20219;-79
2023/01/28 01:03:46;;;;;;;4.37;1.50;;;;;;;1.43;100.00;102996.38;4973789;28;20191;-78
2023/01/28 01:06:14;;;;;;;4.20;1.57;;;;;;;1.40;100.00;102997.00;4991666;28;20200;-77
2023/01/28 01:08:41;;;;;;;4.23;1.43;;;;;;;1.40;100.00;102998.63;4966413;28;20198;-79
2023/01/28 01:11:09;;;;;;;3.13;1.40;;;;;;;1.41;100.00;103001.28;4967087;28;20705;-78
2023/01/28 01:13:35;;;;;;;3.20;1.60;;;;;;;1.38;100.00;102995.94;4990569;28;20199;-78
2023/01/28 01:16:10;;;;;;;2.60;1.80;;;;;;;1.43;100.00;103003.94;4989850;28;20252;-78
2023/01/28 01:18:40;;;;;;;4.13;1.53;;;;;;;1.41;100.00;103000.38;4973900;28;20195;-79
2023/01/28 01:21:16;;;;;;;3.60;1.87;;;;;;;1.44;100.00;103000.66;4990796;28;20226;-78
2023/01/28 01:23:43;;;;;;;1.70;1.30;;;;;;;1.51;100.00;103003.00;4990138;28;20586;-79
2023/01/28 01:26:09;;;;;;;3.50;1.70;;;;;;;1.54;100.00;103001.63;4983029;28;20212;-78
2023/01/28 01:28:35;;;;;;;2.43;1.60;;;;;;;1.55;100.00;102997.47;4979311;28;20215;-77
2023/01/28 01:31:07;;;;;;;4.37;1.90;;;;;;;1.55;100.00;103003.41;4985304;28;20211;-77
2023/01/28 01:33:32;;;;;;;1.70;1.60;;;;;;;1.56;100.00;102996.72;4974473;28;20195;-78
2023/01/28 01:35:58;;;;;;;2.37;1.53;;;;;;;1.58;100.00;103000.25;4988690;28;20706;-79
2023/01/28 01:38:26;;;;;;;4.67;1.83;;;;;;;1.56;100.00;102991.69;4969146;28;20200;-78
2023/01/28 01:40:51;;;;;;;3.63;1.50;;;;;;;1.57;100.00;102993.44;4982018;28;20708;-78
2023/01/28 01:43:19;;;;;;;5.37;1.57;;;;;;;1.54;100.00;102996.59;4987337;28;20204;-79
2023/01/28 01:45:59;;;;;;;3.03;2.13;;;;;;;1.53;100.00;102999.88;4966125;28;20623;-79
2023/01/28 01:48:31;;;;;;;2.73;1.47;;;;;;;1.54;100.00;103005.78;4969149;28;20211;-79
2023/01/28 01:51:02;;;;;;;2.30;1.27;;;;;;;1.51;100.00;102997.97;4954947;28;20279;-79
2023/01/28 01:53:29;;;;;;;3.17;1.60;;;;;;;1.50;100.00;103002.09;4961328;28;20201;-78
2023/01/28 01:56:03;;;;;;;5.23;1.80;;;;;;;1.50;100.00;103007.16;4963900;28;20217;-79
2023/01/28 01:58:34;;;;;;;3.83;1.47;;;;;;;1.46;100.00;103004.25;4961408;28;20247;-77
2023/01/28 02:01:00;;;;;;;4.30;1.30;;;;;;;1.45;100.00;103002.44;4960542;28;20224;-78
2023/01/28 02:03:46;;;;;;;3.47;1.57;;;;;;;1.45;100.00;103004.97;4960027;28;20197;-77
2023/01/28 02:06:12;;;;;;;5.20;1.47;;;;;;;1.45;100.00;103002.44;4958700;28;20189;-79
2023/01/28 02:08:42;;;;;;;1.87;1.40;;;;;;;1.46;100.00;103010.16;4948757;28;20197;-77
2023/01/28 02:11:09;;;;;;;5.17;2.13;;;;;;;1.48;100.00;103002.72;4967569;28;20212;-78
2023/01/28 02:13:45;;;;;;;3.90;1.70;;;;;;;1.49;100.00;103002.88;4978947;28;20681;-77
2023/01/28 02:16:11;;;;;;;4.47;2.00;;;;;;;1.49;100.00;103001.97;4957615;28;20271;-78
2023/01/28 02:18:37;;;;;;;4.70;2.27;;;;;;;1.49;100.00;102999.44;4960522;28;20238;-79
2023/01/28 02:21:02;;;;;;;2.67;1.57;;;;;;;1.52;100.00;102998.06;4963276;28;20247;-79
2023/01/28 02:23:34;;;;;;;3.17;1.37;;;;;;;1.53;100.00;103004.91;4966001;28;20204;-78
2023/01/28 02:26:16;;;;;;;1.50;1.10;;;;;;;1.54;100.00;103004.16;4953881;28;20189;-78
2023/01/28 02:28:58;;;;;;;3.90;1.53;;;;;;;1.53;100.00;102994.81;4956798;28;20188;-78
2023/01/28 02:31:31;;;;;;;2.50;1.20;;;;;;;1.58;100.00;102995.22;4953800;28;20224;-78
2023/01/28 02:34:07;;;;;;;2.33;1.30;;;;;;;1.56;100.00;102994.22;4967955;28;20646;-79
2023/01/28 02:36:44;;;;;;;2.67;1.17;;;;;;;1.54;100.00;102989.03;4936303;28;20311;-78
2023/01/28 02:39:24;;;;;;;4.17;1.37;;;;;;;1.53;100.00;102986.34;4945195;28;20191;-78
2023/01/28 02:41:55;;;;;;;3.17;1.50;;;;;;;1.53;100.00;102991.41;4968525;28;20228;-79
2023/01/28 02:44:22;;;;;;;2.43;1.10;;;;;;;1.53;100.00;102987.25;4983849;28;20193;-78
2023/01/28 02:49:45;;;;;;;2.00;1.20;;;;;;;1.56;100.00;102974.00;4966551;28;20196;-77
2023/01/28 02:55:44;;;;;;;4.27;1.40;;;;;;;1.46;100.00;102984.91;4960356;28;20283;-78
2023/01/28 02:58:31;;;;;;;1.60;1.20;;;;;;;1.45;100.00;102984.78;4967936;28;20209;-77
2023/01/28 03:01:06;;;;;;;1.37;1.20;;;;;;;1.43;100.00;102987.19;4970875;28;20204;-78
2023/01/28 03:03:56;;;;;;;2.50;1.23;;;;;;;1.38;100.00;102985.00;4965024;28;20198;-78
2023/01/28 03:06:29;;;;;;;1.23;1.00;;;;;;;1.37;100.00;102983.22;4970872;28;20204;-77
2023/01/28 03:38:41;;;;;;;3.17;2.00;;;;;;;1.06;100.00;102978.66;4971308;28;20192;-80
2023/01/28 03:41:10;;;;;;;2.00;1.40;;;;;;;1.03;100.00;102980.91;4964040;28;20338;-77
2023/01/28 03:43:36;;;;;;;2.93;1.70;;;;;;;1.02;100.00;102982.56;4973854;28;20614;-77
2023/01/28 03:46:02;;;;;;;3.17;1.30;;;;;;;1.01;100.00;102965.63;4956232;28;20192;-78
2023/01/28 03:48:28;;;;;;;3.03;1.50;;;;;;;1.00;100.00;102973.06;4966074;28;20196;-77
2023/01/28 03:50:55;;;;;;;4.00;1.33;;;;;;;1.00;100.00;102971.41;4956843;28;20215;-77
2023/01/28 03:53:22;;;;;;;1.73;1.40;;;;;;;1.02;100.00;102976.59;4951049;28;20185;-77
2023/01/28 03:55:51;;;;;;;3.40;1.40;;;;;;;1.00;100.00;102980.63;4969820;28;20713;-79
2023/01/28 03:58:17;;;;;;;2.27;1.50;;;;;;;1.03;100.00;102980.91;4949839;28;20279;-78
2023/01/28 04:00:44;;;;;;;2.93;1.63;;;;;;;0.96;100.00;102981.97;4963082;28;20302;-79
2023/01/28 04:03:16;;;;;;;2.60;1.70;;;;;;;0.96;100.00;102986.16;4959771;28;20250;-78
2023/01/28 04:05:59;;;;;;;1.80;1.40;;;;;;;0.95;100.00;102985.25;4970034;28;20188;-80
2023/01/28 04:08:27;;;;;;;3.97;1.70;;;;;;;0.92;100.00;102984.94;4970829;28;20195;-79
2023/01/28 04:11:20;;;;;;;2.23;1.60;;;;;;;0.91;100.00;103000.84;4969764;28;20217;-77
2023/01/28 04:13:47;;;;;;;2.40;1.70;;;;;;;0.89;100.00;102993.88;4966793;28;20259;-78
2023/01/28 04:16:16;;;;;;;4.17;1.80;;;;;;;0.90;100.00;103000.69;4968401;28;20216;-78
2023/01/28 04:18:42;;;;;;;3.20;1.60;;;;;;;0.89;100.00;102999.81;4970601;28;20193;-78
2023/01/28 04:21:08;;;;;;;1.80;1.30;;;;;;;0.88;100.00;102998.06;4971154;28;20238;-78
2023/01/28 04:23:34;;;;;;;2.43;1.40;;;;;;;0.91;100.00;103000.84;4965655;28;20678;-78
2023/01/28 04:26:00;;;;;;;1.90;1.60;;;;;;;0.91;100.00;102994.94;4967638;28;20273;-78
2023/01/28 04:28:26;;;;;;;1.83;1.50;;;;;;;0.92;100.00;102994.16;4951719;28;20201;-78
2023/01/28 04:30:52;;;;;;;2.50;1.50;;;;;;;0.92;100.00;102991.66;4972855;28;20218;-78
2023/01/28 04:33:35;;;;;;;2.67;1.47;;;;;;;0.92;100.00;102986.59;4972663;28;20219;-78
2023/01/28 04:36:21;;;;;;;5.60;1.67;;;;;;;0.94;100.00;102980.06;4969146;28;20220;-77
2023/01/28 04:39:25;;;;;;;1.90;1.37;;;;;;;0.87;100.00;102983.66;4913663;29;20221;-77
2023/01/28 04:42:13;;;;;;;2.30;1.27;;;;;;;0.83;100.00;102975.69;4878726;29;20191;-77
2023/01/28 04:45:01;;;;;;;6.23;1.43;;;;;;;0.82;100.00;102977.28;4943167;28;20196;-78
2023/01/28 04:47:50;;;;;;;4.90;1.40;;;;;;;0.76;100.00;102971.69;4964944;28;20208;-79
2023/01/28 04:50:25;;;;;;;3.30;1.30;;;;;;;0.74;100.00;102975.72;4968503;28;20264;-77
2023/01/28 04:53:11;;;;;;;4.53;1.57;;;;;;;0.63;100.00;102973.81;4963565;28;20670;-77
2023/01/28 04:55:57;;;;;;;3.33;1.70;;;;;;;0.58;100.00;102977.56;4970503;28;20212;-77
2023/01/28 04:58:23;;;;;;;2.13;1.60;;;;;;;0.52;100.00;102976.09;4974396;28;20188;-78
2023/01/28 05:00:54;;;;;;;2.70;1.57;;;;;;;0.49;100.00;102973.31;4972971;28;20780;-77
2023/01/28 05:03:19;;;;;;;8.53;2.00;;;;;;;0.46;100.00;102966.31;4965519;28;20197;-77
2023/01/28 05:05:45;;;;;;;22.87;9.30;;;;;;;0.41;100.00;102977.59;4970673;28;20227;-79
2023/01/28 05:08:21;;;;;;;124.07;51.57;;;;;;;0.44;100.00;102987.97;4973180;28;20219;-77
2023/01/28 05:10:47;;;;;;;27.43;11.67;;;;;;;0.40;100.00;102980.88;4993357;28;20246;-77
2023/01/28 05:13:13;;;;;;;9.17;4.23;;;;;;;0.36;100.00;102976.28;4967825;28;20284;-78
2023/01/28 05:15:39;;;;;;;7.97;3.80;;;;;;;0.38;100.00;102977.34;4967430;28;20220;-77
2023/01/28 05:18:04;;;;;;;7.83;3.40;;;;;;;0.38;100.00;102988.28;4963329;28;20287;-78
2023/01/28 05:20:36;;;;;;;8.40;3.27;;;;;;;0.38;100.00;102989.94;4971366;28;20212;-77
2023/01/28 05:23:03;;;;;;;5.90;2.40;;;;;;;0.38;100.00;102978.97;4954178;28;20196;-78
2023/01/28 05:25:41;;;;;;;4.77;2.07;;;;;;;0.34;100.00;102981.19;4960498;28;20188;-78
2023/01/28 05:28:06;;;;;;;4.50;2.03;;;;;;;0.28;100.00;102978.09;4950129;28;20206;-77
2023/01/28 05:30:32;;;;;;;4.93;2.30;;;;;;;0.28;100.00;102973.81;4969642;28;20244;-78
2023/01/28 05:32:57;;;;;;;3.10;1.90;;;;;;;0.23;100.00;102971.75;4969815;28;20235;-77
2023/01/28 05:35:23;;;;;;;4.77;2.57;;;;;;;0.22;100.00;102977.53;4966122;28;20208;-77
2023/01/28 05:37:49;;;;;;;8.33;6.10;;;;;;;0.20;100.00;102973.97;4972086;28;20204;-78
2023/01/28 05:40:16;;;;;;;5.70;3.90;;;;;;;0.17;100.00;102974.44;4949331;28;20235;-78
2023/01/28 05:42:42;;;;;;;7.77;4.47;;;;;;;0.08;100.00;102957.72;4969441;28;20578;-77
2023/01/28 05:45:22;;;;;;;6.97;4.30;;;;;;;0.03;100.00;102951.38;4970660;28;20185;-78
2023/01/28 05:48:07;;;;;;;8.33;4.40;;;;;;;-0.07;100.00;102960.41;4960808;28;20196;-78
2023/01/28 05:50:42;;;;;;;4.60;3.60;;;;;;;-0.17;100.00;102951.06;4966588;28;20228;-77
2023/01/28 05:53:15;;;;;;;6.20;4.60;;;;;;;-0.16;100.00;102946.94;4954462;28;20617;-79
2023/01/28 05:55:46;;;;;;;7.83;4.00;;;;;;;-0.13;100.00;102955.66;4973492;28;20705;-79
2023/01/28 05:58:11;;;;;;;13.87;9.80;;;;;;;-0.14;100.00;102950.47;4969556;28;20218;-78
2023/01/28 06:00:37;;;;;;;9.43;6.57;;;;;;;-0.19;100.00;102952.56;4974997;28;20228;-79
2023/01/28 06:03:04;;;;;;;8.67;5.43;;;;;;;-0.26;100.00;102946.81;4983192;28;20196;-78
2023/01/28 06:05:30;;;;;;;7.70;5.10;;;;;;;-0.36;100.00;102955.09;4987251;28;20285;-78
2023/01/28 06:07:55;;;;;;;7.37;4.63;;;;;;;-0.42;100.00;102951.09;4970835;28;20281;-80
2023/01/28 06:10:21;;;;;;;7.13;5.20;;;;;;;-0.47;100.00;102965.78;4962297;28;20213;-77
2023/01/28 06:12:46;;;;;;;7.40;4.80;;;;;;;-0.54;100.00;102967.53;4966039;28;20196;-78
2023/01/28 06:15:31;;;;;;;7.47;5.03;;;;;;;-0.59;100.00;102969.59;4966590;28;20721;-78
2023/01/28 06:18:15;;;;;;;8.50;4.73;;;;;;;-0.56;100.00;102966.50;4970508;28;20218;-77
2023/01/28 06:20:41;;;;;;;7.13;4.43;;;;;;;-0.55;100.00;102968.28;4955552;28;20303;-77
2023/01/28 06:23:07;;;;;;;7.10;4.63;;;;;;;-0.56;100.00;102956.44;4973736;28;20266;-78
2023/01/28 06:25:33;;;;;;;6.20;4.07;;;;;;;-0.57;100.00;102957.19;4972771;28;20566;-78
2023/01/28 06:28:02;;;;;;;5.70;4.17;;;;;;;-0.64;100.00;102962.38;4983670;28;20188;-79
2023/01/28 06:30:28;;;;;;;5.27;4.00;;;;;;;-0.72;100.00;102965.75;4968614;28;20216;-79
2023/01/28 06:32:54;;;;;;;5.07;4.10;;;;;;;-0.72;100.00;102960.72;4970442;28;20197;-78
2023/01/28 06:35:20;;;;;;;6.57;3.87;;;;;;;-0.77;100.00;102966.94;4964249;28;20217;-77
2023/01/28 06:37:46;;;;;;;5.13;3.43;;;;;;;-0.81;100.00;102955.69;4964989;28;20208;-78
2023/01/28 06:40:11;;;;;;;6.40;4.43;;;;;;;-0.82;100.00;102960.56;4963922;28;20219;-78
2023/01/28 06:42:37;;;;;;;4.67;3.47;;;;;;;-0.82;100.00;102971.50;4970439;28;20725;-78
2023/01/28 06:45:02;;;;;;;5.20;3.83;;;;;;;-0.78;100.00;102970.19;4973123;28;20196;-77
2023/01/28 06:47:28;;;;;;;5.10;3.80;;;;;;;-0.83;100.00;102969.72;4965533;28;20563;-78
2023/01/28 06:49:53;;;;;;;5.27;3.53;;;;;;;-0.83;100.00;102968.84;4972000;28;20216;-77
2023/01/28 06:52:18;;;;;;;6.60;3.63;;;;;;;-0.85;100.00;102963.66;4970196;28;20189;-78
2023/01/28 06:54:44;;;;;;;7.13;3.90;;;;;;;-0.84;100.00;102959.50;4972326;28;20196;-77
2023/01/28 06:57:09;;;;;;;5.03;3.03;;;;;;;-0.87;100.00;102966.78;4976832;28;20207;-77
2023/01/28 06:59:35;;;;;;;6.47;2.90;;;;;;;-0.92;100.00;102973.84;4972938;28;20283;-78
2023/01/28 07:02:00;;;;;;;6.97;2.70;;;;;;;-0.97;100.00;102979.16;4977063;28;20230;-78
2023/01/28 07:04:26;;;;;;;4.83;2.83;;;;;;;-1.02;100.00;102967.75;4960724;28;20204;-78
2023/01/28 07:06:51;;;;;;;4.63;3.00;;;;;;;-1.05;100.00;102967.47;4963408;28;20223;-79
2023/01/28 07:09:16;;;;;;;6.07;4.13;;;;;;;-1.13;100.00;102960.78;4970751;28;20199;-78
2023/01/28 07:11:42;;;;;;;5.60;3.10;;;;;;;-1.12;100.00;102958.44;4968931;28;20208;-78
2023/01/28 07:14:07;;;;;;;4.33;2.70;;;;;;;-1.07;100.00;102961.38;4959902;28;20287;-79
2023/01/28 07:16:33;;;;;;;4.70;3.80;;;;;;;-1.10;100.00;102979.56;4966175;28;20300;-80
2023/01/28 07:18:58;;;;;;;5.90;3.63;;;;;;;-1.17;100.00;102987.25;4958951;28;20192;-77
2023/01/28 07:21:24;;;;;;;5.77;3.90;;;;;;;-1.20;100.00;103002.00;4974853;28;20227;-78
2023/01/28 07:23:49;;;;;;;6.10;3.63;;;;;;;-1.22;100.00;103006.00;4971877;28;20276;-78
2023/01/28 07:26:15;;;;;;;7.53;4.50;;;;;;;-1.21;100.00;103006.88;4974184;28;20199;-78
2023/01/28 07:28:40;;;;;;;6.07;3.70;;;;;;;-1.23;100.00;103004.19;4967629;28;20192;-77
2023/01/28 07:31:06;;;;;;;6.33;3.27;;;;;;;-1.19;100.00;103012.94;4966808;28;20216;-77
2023/01/28 07:33:31;;;;;;;6.60;3.63;;;;;;;-1.21;100.00;103021.94;4984496;28;20203;-77
2023/01/28 07:35:57;;;;;;;6.97;3.30;;;;;;;-1.22;100.00;103025.19;4977161;28;20220;-78
2023/01/28 07:38:22;;;;;;;6.63;4.73;;;;;;;-1.20;100.00;103021.19;4974911;28;20192;-78
2023/01/28 07:40:48;;;;;;;4.50;3.77;;;;;;;-1.21;100.00;103032.88;4978253;28;20230;-78
2023/01/28 07:43:13;;;;;;;9.13;4.23;;;;;;;-1.13;100.00;103029.53;4977272;28;20570;-78
2023/01/28 07:45:40;;;;;;;8.40;4.63;;;;;;;-1.07;100.00;103049.34;4988500;28;20676;-83
2023/01/28 07:48:08;;;;;;;8.57;5.00;;;;;;;-1.04;100.00;103039.59;4976785;28;20283;-77
2023/01/28 07:50:36;;;;;;;15.50;7.23;;;;;;;-0.99;100.00;103044.38;4979301;28;20291;-78
2023/01/28 07:53:04;;;;;;;13.07;6.93;;;;;;;-0.99;100.00;103036.81;4976342;28;20672;-78
2023/01/28 07:55:30;;;;;;;7.60;3.60;;;;;;;-0.93;100.00;103036.53;4956689;28;20218;-78
2023/01/28 07:57:57;;;;;;;5.67;3.37;;;;;;;-0.92;100.00;103038.34;4979902;28;20204;-78
2023/01/28 08:00:24;;;;;;;6.07;2.90;;;;;;;-0.89;100.00;103048.66;4974331;28;20225;-78
2023/01/28 08:02:55;;;;;;;5.10;3.03;;;;;;;-0.85;100.00;103041.59;4969962;28;20193;-78
2023/01/28 08:05:20;;;;;;;3.17;2.77;;;;;;;-0.84;100.00;103038.34;4980155;28;20200;-78
2023/01/28 08:07:47;;;;;;;7.13;3.00;;;;;;;-0.77;100.00;103045.75;4976459;28;20207;-79
2023/01/28 08:10:14;;;;;;;4.23;2.90;;;;;;;-0.72;100.00;103048.72;4975804;28;20278;-79
2023/01/28 08:12:39;;;;;;;3.67;2.87;;;;;;;-0.69;100.00;103051.56;4977404;28;20654;-76
2023/01/28 08:15:06;;;;;;;3.97;3.10;;;;;;;-0.65;100.00;103048.56;4978997;28;20227;-77
2023/01/28 08:17:32;;;;;;;5.23;3.30;;;;;;;-0.62;100.00;103061.47;4972405;28;20204;-77
2023/01/28 08:19:57;;;;;;;5.03;3.37;;;;;;;-0.52;100.00;103060.03;4975427;28;20209;-77
2023/01/28 08:22:26;;;;;;;5.67;3.37;;;;;;;-0.46;100.00;103057.22;4971980;28;20208;-78
2023/01/28 08:24:52;;;;;;;5.40;2.90;;;;;;;-0.37;100.00;103058.09;4975257;28;20243;-79
2023/01/28 08:27:18;;;;;;;4.43;2.80;;;;;;;-0.30;100.00;103063.91;4978937;28;20196;-77
2023/01/28 08:29:43;;;;;;;5.10;3.10;;;;;;;-0.35;100.00;103076.75;4973258;28;20334;-77
2023/01/28 08:32:09;;;;;;;5.83;3.57;;;;;;;-0.33;100.00;103075.28;4974883;28;20215;-79
2023/01/28 08:34:35;;;;;;;5.63;3.03;;;;;;;-0.27;100.00;103059.16;4971256;28;20196;-78
2023/01/28 08:37:01;;;;;;;7.23;3.17;;;;;;;-0.15;100.00;103052.81;4977952;28;20211;-78
2023/01/28 08:39:26;;;;;;;5.13;3.03;;;;;;;-0.03;100.00;103065.69;4968102;28;20569;-78
2023/01/28 08:41:52;;;;;;;6.67;3.13;;;;;;;0.08;100.00;103065.06;4974098;28;20215;-77
2023/01/28 08:44:17;;;;;;;5.37;3.00;;;;;;;0.27;100.00;103053.50;4979931;28;20616;-77
2023/01/28 08:46:42;;;;;;;4.10;2.67;;;;;;;0.36;100.00;103051.84;4974900;28;20199;-79
2023/01/28 08:49:08;;;;;;;3.73;2.50;;;;;;;0.54;100.00;103063.69;4978120;28;20208;-78
2023/01/28 08:51:33;;;;;;;4.57;2.83;;;;;;;0.73;100.00;103066.31;4974735;28;20235;-78
2023/01/28 08:53:59;;;;;;;6.47;3.13;;;;;;;0.68;100.00;103067.53;4981255;28;20235;-78
2023/01/28 08:56:25;;;;;;;7.37;2.90;;;;;;;0.79;100.00;103069.41;4977851;28;20221;-77
2023/01/28 08:58:50;;;;;;;5.50;3.47;;;;;;;0.99;100.00;103079.69;4995140;28;20266;-78
2023/01/28 09:01:16;;;;;;;7.30;3.37;;;;;;;1.12;100.00;103067.47;4971095;28;20222;-78
2023/01/28 09:03:41;;;;;;;5.00;3.00;;;;;;;1.16;100.00;103072.06;4990641;28;20188;-78
2023/01/28 09:06:07;;;;;;;6.53;2.47;;;;;;;1.31;100.00;103060.84;4981601;28;20191;-78
2023/01/28 09:08:32;;;;;;;6.23;3.17;;;;;;;1.41;100.00;103066.88;4983114;28;20196;-78
2023/01/28 09:10:58;;;;;;;5.50;3.07;;;;;;;1.68;100.00;103065.97;4979640;28;20209;-78
2023/01/28 09:13:24;;;;;;;6.60;3.33;;;;;;;1.75;100.00;103081.78;4976394;28;20238;-80
2023/01/28 09:15:50;;;;;;;4.13;3.33;;;;;;;2.03;100.00;103081.03;4973664;28;20217;-79
2023/01/28 09:18:16;;;;;;;6.20;4.20;;;;;;;2.20;100.00;103093.47;4977183;28;20258;-78
2023/01/28 09:20:42;;;;;;;4.87;4.23;;;;;;;2.19;100.00;103100.91;4979102;28;20219;-79
2023/01/28 09:23:08;;;;;;;6.93;4.70;;;;;;;2.25;100.00;103106.53;4966653;28;20235;-78
2023/01/28 09:25:35;;;;;;;5.57;4.20;;;;;;;2.17;100.00;103108.41;4960332;28;20243;-78
2023/01/28 09:28:01;;;;;;;6.43;4.47;;;;;;;2.00;100.00;103111.03;4962118;28;20286;-75
2023/01/28 09:30:27;;;;;;;6.23;4.50;;;;;;;1.98;100.00;103104.94;4966948;28;20319;-78
2023/01/28 09:32:53;;;;;;;6.87;4.97;;;;;;;2.38;100.00;103095.09;4956338;28;20563;-70
2023/01/28 09:35:19;;;;;;;10.03;6.40;;;;;;;2.83;100.00;103098.22;4964047;28;20222;-70
2023/01/28 09:37:45;;;;;;;10.73;5.60;;;;;;;3.14;100.00;103103.50;4969815;28;20189;-70
2023/01/28 09:40:36;;;;;;;9.20;5.50;;;;;;;3.08;100.00;103117.28;4971871;28;20635;-70
2023/01/28 09:43:08;;;;;;;9.07;5.10;;;;;;;2.79;100.00;103137.53;4958860;28;20227;-78
2023/01/28 09:45:41;;;;;;;8.10;5.50;;;;;;;2.40;100.00;103133.16;4984001;28;20193;-79
2023/01/28 09:48:15;;;;;;;6.53;5.17;;;;;;;2.22;100.00;103129.91;4968138;28;20235;-76
2023/01/28 09:50:44;;;;;;;9.53;6.20;;;;;;;2.32;100.00;103140.06;4970029;28;20226;-78
2023/01/28 09:53:24;;;;;;;8.87;6.20;;;;;;;2.37;100.00;103148.94;4979403;28;20203;-76
2023/01/28 09:56:11;;;;;;;10.90;6.93;;;;;;;2.37;100.00;103140.47;4975378;28;20223;-76
2023/01/28 09:58:36;;;;;;;9.73;6.47;;;;;;;2.41;100.00;103143.41;4966343;28;20729;-76
2023/01/28 10:01:54;;;;;;;8.50;6.50;;;;;;;3.00;100.00;103128.38;4956990;28;20240;-77
2023/01/28 10:04:22;;;;;;;8.23;7.43;;;;;;;3.46;100.00;103122.31;4961889;28;20274;-78
2023/01/28 10:06:53;;;;;;;10.60;7.23;;;;;;;3.62;100.00;103120.28;4975487;28;20654;-77
2023/01/28 10:09:41;;;;;;;10.00;7.43;;;;;;;5.67;100.00;103109.78;4980029;28;20203;-77
2023/01/28 10:12:38;;;;;;;7.03;6.30;;;;;;;11.64;68.10;103069.13;4965706;28;20752;-77
2023/01/28 10:15:48;;;;;;;6.97;6.27;;;;;;;14.94;48.40;103049.63;4988057;28;20207;-76
2023/01/28 10:18:14;;;;;;;6.73;5.63;;;;;;;16.17;41.30;103043.66;4971795;28;20873;-78
2023/01/28 10:20:53;;;;;;;8.30;6.00;;;;;;;15.63;39.65;103036.69;4977610;28;20220;-78
2023/01/28 10:23:45;;;;;;;8.90;5.70;;;;;;;16.31;39.50;103040.66;4972008;28;20206;-75
2023/01/28 10:26:21;;;;;;;8.47;6.07;;;;;;;15.56;39.35;103048.50;4993451;28;20199;-76
2023/01/28 10:28:52;;;;;;;7.13;5.73;;;;;;;16.21;36.79;103024.84;4974147;28;20199;-78
2023/01/28 10:31:19;;;;;;;8.30;5.57;;;;;;;17.30;36.01;103024.66;4976370;28;20227;-75
2023/01/28 10:33:44;;;;;;;6.23;5.40;;;;;;;17.49;33.81;103013.97;4965126;28;20201;-75
2023/01/28 10:36:10;;;;;;;6.90;4.73;;;;;;;16.99;33.82;103022.94;4970340;28;20231;-78
2023/01/28 10:38:35;;;;;;;7.93;5.33;;;;;;;17.56;33.23;103018.50;4970888;28;20237;-77
2023/01/28 10:41:03;;;;;;;7.93;4.77;;;;;;;17.57;32.54;103012.47;4973900;28;20626;-78
2023/01/28 10:43:40;;;;;;;6.33;4.60;;;;;;;18.23;32.43;102998.56;4972473;28;20254;-76
2023/01/28 10:46:12;;;;;;;6.33;5.50;;;;;;;17.47;32.56;103001.00;4969410;28;20219;-78
2023/01/28 10:48:46;;;;;;;5.80;5.20;;;;;;;17.04;34.56;103002.38;4964800;28;20203;-77
2023/01/28 10:51:13;;;;;;;6.90;5.80;;;;;;;17.16;33.82;103008.75;4970837;28;20214;-78
2023/01/28 10:53:42;;;;;;;5.57;5.00;;;;;;;15.55;34.61;103012.28;4969486;28;20193;-77
2023/01/28 10:56:15;;;;;;;6.20;5.20;;;;;;;13.04;41.52;103009.09;4970168;28;20247;-76
2023/01/28 10:59:27;;;;;;;5.47;4.67;;;;;;;9.99;51.02;103022.47;4990005;28;20192;-77
2023/01/28 11:01:57;;;;;;;7.27;5.30;;;;;;;9.58;56.59;103026.88;4975626;28;20585;-77
2023/01/28 11:04:29;;;;;;;5.33;4.93;;;;;;;9.73;54.49;103021.78;4974624;28;20199;-77
2023/01/28 11:06:56;;;;;;;6.47;5.07;;;;;;;9.55;56.96;103008.81;4972143;28;20683;-75
2023/01/28 11:09:33;;;;;;;5.30;4.83;;;;;;;8.58;58.25;102998.63;4969498;28;20196;-75
2023/01/28 11:12:13;;;;;;;5.70;5.20;;;;;;;8.14;60.94;102996.56;4974857;28;20188;-74
2023/01/28 11:14:50;;;;;;;7.23;5.10;;;;;;;7.97;62.57;102985.28;4974835;28;20189;-75
2023/01/28 11:17:17;;;;;;;6.90;5.10;;;;;;;7.91;63.60;102978.91;4970611;28;20684;-75
2023/01/28 11:19:43;;;;;;;8.90;5.20;;;;;;;9.11;60.92;102966.97;4975494;28;20238;-76
2023/01/28 11:22:32;;;;;;;7.10;5.53;;;;;;;14.79;41.74;102948.47;4966459;28;20200;-75
2023/01/28 11:25:00;;;;;;;6.20;4.33;;;;;;;16.05;35.84;102939.88;4979296;28;20188;-75
2023/01/28 11:27:29;;;;;;;5.60;4.97;;;;;;;15.60;36.90;102918.66;4978725;28;20965;-75
2023/01/28 11:30:03;;;;;;;6.10;5.00;;;;;;;12.95;40.29;102940.13;4976382;28;20217;-75
2023/01/28 11:32:30;;;;;;;5.47;4.60;;;;;;;13.49;39.82;102934.75;4972246;28;20235;-74
2023/01/28 11:34:56;;;;;;;8.10;4.63;;;;;;;14.61;36.23;102935.78;4962252;28;20225;-74
2023/01/28 11:37:24;;;;;;;5.83;4.00;;;;;;;14.60;36.99;102918.53;4956191;28;20207;-75
2023/01/28 11:40:19;;;;;;;5.30;3.73;;;;;;;16.57;33.97;102913.06;4976493;28;20216;-75
2023/01/28 11:42:45;;;;;;;4.83;4.20;;;;;;;15.96;33.42;102914.63;4957094;28;20220;-76
2023/01/28 11:45:42;;;;;;;7.37;4.20;;;;;;;16.00;33.42;102900.97;4964920;28;20286;-75
2023/01/28 11:48:17;;;;;;;4.60;4.20;;;;;;;16.33;33.41;102878.69;4972862;28;20211;-75
2023/01/28 11:50:56;;;;;;;7.03;4.63;;;;;;;16.31;32.84;102875.19;4971617;28;20218;-75
2023/01/28 11:54:07;;;;;;;5.10;4.60;;;;;;;17.54;31.67;102864.72;4973000;28;20732;-75
2023/01/28 11:56:47;;;;;;;6.53;4.33;;;;;;;18.12;31.11;102880.72;4971107;28;20223;-76
2023/01/28 11:59:52;;;;;;;6.63;4.73;;;;;;;18.52;31.09;102883.34;4972565;28;20344;-76
2023/01/28 12:02:43;;;;;;;5.23;4.40;;;;;;;18.03;30.42;102884.00;4971967;28;20482;-75
2023/01/28 12:05:18;;;;;;;6.80;4.90;;;;;;;16.79;31.81;102911.94;4974593;28;20220;-75
2023/01/28 12:08:03;;;;;;;5.63;4.40;;;;;;;16.64;31.62;102909.81;4988130;28;20291;-76
2023/01/28 12:10:44;;;;;;;5.23;4.73;;;;;;;17.11;31.86;102898.13;4980522;28;20585;-76
2023/01/28 12:13:15;;;;;;;5.23;4.73;;;;;;;19.23;28.92;102875.16;4970897;28;20191;-75